Time,TemperatureF,DewpointF,PressureIn,WindDirection,WindDirectionDegrees,WindSpeedMPH,WindSpeedGustMPH,Humidity,HourlyPrecipIn,Conditions,Clouds,dailyrainin,SoftwareType,DateUTC
2013-06-24 00:02:00,75.2,74.3,29.97,ESE,112,0.0,-999.0,97,-99.99,,,0.00,Acu-Link.com,2013-06-24 05:02:00,
2013-06-24 00:18:00,75.0,74.4,29.97,NE,45,0.0,-999.0,98,-99.99,,,0.00,Acu-Link.com,2013-06-24 05:18:00,
2013-06-24 00:33:00,74.8,74.2,29.97,SW,225,0.0,-999.0,98,-99.99,,,0.00,Acu-Link.com,2013-06-24 05:33:00,
2013-06-24 00:48:00,74.7,74.4,29.97,West,270,0.0,-999.0,99,-99.99,,,0.00,Acu-Link.com,2013-06-24 05:48:00,
2013-06-24 01:04:00,74.5,74.2,29.97,NE,45,0.0,-999.0,99,-99.99,,,0.00,Acu-Link.com,2013-06-24 06:04:00,
2013-06-24 01:19:00,74.5,74.2,29.97,NNE,22,0.0,-999.0,99,-99.99,,,0.00,Acu-Link.com,2013-06-24 06:19:00,
2013-06-24 01:34:00,74.3,74.0,29.97,NNW,337,0.0,-999.0,99,-99.99,,,0.00,Acu-Link.com,2013-06-24 06:34:00,
2013-06-24 01:49:00,74.3,74.0,29.97,SE,135,0.0,-999.0,99,-99.99,,,0.00,Acu-Link.com,2013-06-24 06:49:00,
2013-06-24 02:05:00,73.9,73.6,29.97,WNW,292,0.0,-999.0,99,-99.99,,,0.00,Acu-Link.com,2013-06-24 07:05:00,
2013-06-24 02:20:00,73.8,73.5,29.98,NE,45,0.0,-999.0,99,-99.99,,,0.00,Acu-Link.com,2013-06-24 07:20:00,
2013-06-24 02:35:00,73.6,73.3,29.97,NE,45,0.0,-999.0,99,-99.99,,,0.00,Acu-Link.com,2013-06-24 07:35:00,
2013-06-24 02:51:00,73.6,73.3,29.98,NNE,22,0.0,-999.0,99,-99.99,,,0.00,Acu-Link.com,2013-06-24 07:51:00,
2013-06-24 03:06:00,73.6,73.3,29.98,WSW,247,0.0,-999.0,99,-99.99,,,0.00,Acu-Link.com,2013-06-24 08:06:00,
2013-06-24 03:21:00,73.6,73.3,29.98,WSW,247,0.0,-999.0,99,-99.99,,,0.00,Acu-Link.com,2013-06-24 08:21:00,
2013-06-24 03:36:00,73.4,73.1,29.98,East,90,0.0,-999.0,99,-99.99,,,0.00,Acu-Link.com,2013-06-24 08:36:00,
2013-06-24 03:51:00,73.2,72.9,29.98,NE,45,0.0,-999.0,99,-99.99,,,0.00,Acu-Link.com,2013-06-24 08:51:00,
2013-06-24 04:06:00,73.4,73.1,29.98,NNE,22,0.0,-999.0,99,-99.99,,,0.00,Acu-Link.com,2013-06-24 09:06:00,
2013-06-24 04:22:00,73.4,73.1,29.98,WNW,292,0.0,-999.0,99,-99.99,,,0.00,Acu-Link.com,2013-06-24 09:22:00,
2013-06-24 04:37:00,73.6,73.3,29.99,SE,135,0.0,-999.0,99,-99.99,,,0.00,Acu-Link.com,2013-06-24 09:37:00,
2013-06-24 04:52:00,73.4,73.1,29.98,SSE,157,0.0,-999.0,99,-99.99,,,0.00,Acu-Link.com,2013-06-24 09:52:00,
2013-06-24 05:07:00,73.6,73.3,29.98,SSE,157,1.6,-999.0,99,-99.99,,,0.00,Acu-Link.com,2013-06-24 10:07:00,
2013-06-24 05:23:00,73.9,73.6,29.98,SSE,157,2.2,-999.0,99,-99.99,,,0.00,Acu-Link.com,2013-06-24 10:23:00,
2013-06-24 05:38:00,73.9,73.6,29.98,ENE,67,1.1,-999.0,99,-99.99,,,0.00,Acu-Link.com,2013-06-24 10:38:00,
2013-06-24 05:53:00,73.4,73.1,29.99,ESE,112,0.0,-999.0,99,-99.99,,,0.00,Acu-Link.com,2013-06-24 10:53:00,
2013-06-24 06:08:00,73.2,72.9,29.99,NE,45,0.0,-999.0,99,-99.99,,,0.00,Acu-Link.com,2013-06-24 11:08:00,
2013-06-24 06:24:00,73.0,72.7,29.99,East,90,0.0,-999.0,99,-99.99,,,0.00,Acu-Link.com,2013-06-24 11:24:00,
2013-06-24 06:39:00,73.6,73.3,30.00,ESE,112,1.6,-999.0,99,-99.99,,,0.00,Acu-Link.com,2013-06-24 11:39:00,
2013-06-24 06:54:00,74.7,74.4,30.00,SSE,157,0.0,-999.0,99,-99.99,,,0.00,Acu-Link.com,2013-06-24 11:54:00,
2013-06-24 07:10:00,75.4,75.1,30.00,SSE,157,0.0,-999.0,99,-99.99,,,0.00,Acu-Link.com,2013-06-24 12:10:00,
2013-06-24 07:25:00,75.9,75.6,30.00,SSE,157,0.0,-999.0,99,-99.99,,,0.00,Acu-Link.com,2013-06-24 12:25:00,
2013-06-24 07:40:00,77.0,76.1,30.01,SE,135,0.0,-999.0,97,-99.99,,,0.00,Acu-Link.com,2013-06-24 12:40:00,
2013-06-24 07:55:00,78.3,76.4,30.02,SSE,157,4.3,-999.0,94,-99.99,,,0.00,Acu-Link.com,2013-06-24 12:55:00,
2013-06-24 08:10:00,80.2,77.0,30.02,South,180,4.3,-999.0,90,-99.99,,,0.00,Acu-Link.com,2013-06-24 13:10:00,
2013-06-24 08:25:00,81.3,77.4,30.02,SE,135,3.1,-999.0,88,-99.99,,,0.00,Acu-Link.com,2013-06-24 13:25:00,
2013-06-24 08:41:00,82.0,77.4,30.02,SE,135,2.7,-999.0,86,-99.99,,,0.00,Acu-Link.com,2013-06-24 13:41:00,
2013-06-24 08:56:00,82.8,77.8,30.03,SE,135,3.1,-999.0,85,-99.99,,,0.00,Acu-Link.com,2013-06-24 13:56:00,
2013-06-24 09:11:00,84.6,78.1,30.03,SE,135,2.7,-999.0,81,-99.99,,,0.00,Acu-Link.com,2013-06-24 14:11:00,
2013-06-24 09:26:00,88.0,78.6,30.03,ESE,112,3.8,-999.0,74,-99.99,,,0.00,Acu-Link.com,2013-06-24 14:26:00,
2013-06-24 09:41:00,88.0,79.0,30.04,SSE,157,4.3,-999.0,75,-99.99,,,0.00,Acu-Link.com,2013-06-24 14:41:00,
2013-06-24 09:57:00,88.7,78.1,30.03,SE,135,6.3,-999.0,71,-99.99,,,0.00,Acu-Link.com,2013-06-24 14:57:00,
2013-06-24 10:12:00,87.6,77.9,30.03,SSE,157,6.3,-999.0,73,-99.99,,,0.00,Acu-Link.com,2013-06-24 15:12:00,
2013-06-24 10:27:00,89.4,79.2,30.04,SSW,202,7.8,-999.0,72,-99.99,,,0.00,Acu-Link.com,2013-06-24 15:27:00,
2013-06-24 10:43:00,89.1,78.0,30.03,SW,225,6.3,-999.0,70,-99.99,,,0.00,Acu-Link.com,2013-06-24 15:43:00,
2013-06-24 10:58:00,92.1,78.2,30.03,SSW,202,4.7,-999.0,64,-99.99,,,0.00,Acu-Link.com,2013-06-24 15:58:00,
2013-06-24 11:13:00,91.4,77.0,30.03,ESE,112,3.1,-999.0,63,-99.99,,,0.00,Acu-Link.com,2013-06-24 16:13:00,
2013-06-24 11:29:00,92.5,76.0,30.03,SSE,157,6.3,-999.0,59,-99.99,,,0.00,Acu-Link.com,2013-06-24 16:29:00,
2013-06-24 11:44:00,92.5,76.5,30.03,ESE,112,7.4,-999.0,60,-99.99,,,0.00,Acu-Link.com,2013-06-24 16:44:00,
2013-06-24 11:59:00,90.9,76.5,30.03,WSW,247,7.4,-999.0,63,-99.99,,,0.00,Acu-Link.com,2013-06-24 16:59:00,
2013-06-24 12:14:00,91.2,77.3,30.02,South,180,4.3,-999.0,64,-99.99,,,0.00,Acu-Link.com,2013-06-24 17:14:00,
2013-06-24 12:30:00,94.3,77.7,30.02,SW,225,5.1,-999.0,59,-99.99,,,0.00,Acu-Link.com,2013-06-24 17:30:00,
2013-06-24 12:45:00,94.5,78.9,30.02,SE,135,3.8,-999.0,61,-99.99,,,0.00,Acu-Link.com,2013-06-24 17:45:00,
2013-06-24 13:00:00,92.7,75.7,30.02,SSE,157,6.7,-999.0,58,-99.99,,,0.00,Acu-Link.com,2013-06-24 18:00:00,
2013-06-24 13:16:00,90.1,78.1,30.01,ESE,112,9.8,-999.0,68,-99.99,,,0.00,Acu-Link.com,2013-06-24 18:16:00,
2013-06-24 13:31:00,92.1,77.2,30.00,SSE,157,8.3,-999.0,62,-99.99,,,0.00,Acu-Link.com,2013-06-24 18:31:00,
2013-06-24 13:46:00,92.5,78.5,30.00,South,180,6.7,-999.0,64,-99.99,,,0.00,Acu-Link.com,2013-06-24 18:46:00,
2013-06-24 14:02:00,92.1,76.2,30.00,ESE,112,6.3,-999.0,60,-99.99,,,0.00,Acu-Link.com,2013-06-24 19:02:00,
2013-06-24 14:17:00,91.4,75.0,30.00,SW,225,7.4,-999.0,59,-99.99,,,0.00,Acu-Link.com,2013-06-24 19:17:00,
2013-06-24 14:32:00,92.1,76.7,29.99,South,180,9.4,-999.0,61,-99.99,,,0.00,Acu-Link.com,2013-06-24 19:32:00,
2013-06-24 14:47:00,91.8,77.3,29.99,SE,135,6.3,-999.0,63,-99.99,,,0.00,Acu-Link.com,2013-06-24 19:47:00,
2013-06-24 15:02:00,90.0,77.5,29.99,South,180,9.8,-999.0,67,-99.99,,,0.00,Acu-Link.com,2013-06-24 20:02:00,
2013-06-24 15:18:00,91.0,77.6,29.98,East,90,6.7,-999.0,65,-99.99,,,0.00,Acu-Link.com,2013-06-24 20:18:00,
2013-06-24 15:33:00,87.4,76.9,29.98,SE,135,7.4,-999.0,71,-99.99,,,0.00,Acu-Link.com,2013-06-24 20:33:00,
2013-06-24 15:48:00,87.3,77.1,29.98,SE,135,5.1,-999.0,72,-99.99,,,0.00,Acu-Link.com,2013-06-24 20:48:00,
2013-06-24 16:03:00,86.4,77.1,29.97,SSE,157,6.3,-999.0,74,-99.99,,,0.00,Acu-Link.com,2013-06-24 21:03:00,
2013-06-24 16:19:00,78.3,74.4,29.98,WSW,247,11.0,-999.0,88,-99.99,,,0.00,Acu-Link.com,2013-06-24 21:19:00,
2013-06-24 16:35:00,76.8,73.7,29.99,WSW,247,5.1,-999.0,90,-99.99,,,0.00,Acu-Link.com,2013-06-24 21:35:00,
2013-06-24 16:50:00,77.5,75.0,29.98,SW,225,4.7,-999.0,92,-99.99,,,0.02,Acu-Link.com,2013-06-24 21:50:00,
2013-06-24 17:05:00,79.3,76.8,29.97,South,180,1.6,-999.0,92,-99.99,,,0.05,Acu-Link.com,2013-06-24 22:05:00,
2013-06-24 17:20:00,81.3,78.1,29.97,SW,225,0.0,-999.0,90,-99.99,,,0.05,Acu-Link.com,2013-06-24 22:20:00,
2013-06-24 17:36:00,81.5,77.6,29.97,SW,225,5.1,-999.0,88,-99.99,,,0.05,Acu-Link.com,2013-06-24 22:36:00,
2013-06-24 17:51:00,80.2,76.7,29.98,WSW,247,2.7,-999.0,89,-99.99,,,0.05,Acu-Link.com,2013-06-24 22:51:00,
2013-06-24 18:06:00,80.2,77.0,29.98,SW,225,2.2,-999.0,90,-99.99,,,0.05,Acu-Link.com,2013-06-24 23:06:00,
2013-06-24 18:22:00,80.2,77.0,29.98,West,270,2.2,-999.0,90,-99.99,,,0.05,Acu-Link.com,2013-06-24 23:22:00,
2013-06-24 18:37:00,80.6,76.7,29.97,WSW,247,1.1,-999.0,88,-99.99,,,0.05,Acu-Link.com,2013-06-24 23:37:00,
2013-06-24 18:52:00,80.6,76.7,29.98,West,270,2.7,-999.0,88,-99.99,,,0.05,Acu-Link.com,2013-06-24 23:52:00,
2013-06-24 19:08:00,80.2,76.4,29.97,ESE,112,1.1,-999.0,88,-99.99,,,0.05,Acu-Link.com,2013-06-25 00:08:00,
2013-06-24 19:23:00,81.0,76.7,29.97,South,180,0.0,-999.0,87,-99.99,,,0.05,Acu-Link.com,2013-06-25 00:23:00,
2013-06-24 19:38:00,81.0,77.1,29.97,East,90,0.0,-999.0,88,-99.99,,,0.05,Acu-Link.com,2013-06-25 00:38:00,
2013-06-24 19:53:00,80.2,76.7,29.97,SSE,157,1.1,-999.0,89,-99.99,,,0.05,Acu-Link.com,2013-06-25 00:53:00,
2013-06-24 20:09:00,79.9,77.0,29.97,SSW,202,2.2,-999.0,91,-99.99,,,0.05,Acu-Link.com,2013-06-25 01:09:00,
2013-06-24 20:24:00,78.4,76.6,29.96,North,0,2.7,-999.0,94,-99.99,,,0.05,Acu-Link.com,2013-06-25 01:24:00,
2013-06-24 20:39:00,78.1,76.2,29.97,North,0,3.1,-999.0,94,-99.99,,,0.05,Acu-Link.com,2013-06-25 01:39:00,
2013-06-24 20:54:00,77.7,76.2,29.98,NNE,22,0.0,-999.0,95,-99.99,,,0.05,Acu-Link.com,2013-06-25 01:54:00,
2013-06-24 21:10:00,77.4,75.8,29.97,SSE,157,0.0,-999.0,95,-99.99,,,0.05,Acu-Link.com,2013-06-25 02:10:00,
2013-06-24 21:25:00,76.5,75.5,29.96,SSW,202,2.7,-999.0,97,-99.99,,,0.05,Acu-Link.com,2013-06-25 02:25:00,
2013-06-24 21:40:00,76.8,74.0,29.96,South,180,4.7,-999.0,91,-99.99,,,0.05,Acu-Link.com,2013-06-25 02:40:00,
2013-06-24 21:56:00,76.6,73.8,29.96,South,180,3.1,-999.0,91,-99.99,,,0.05,Acu-Link.com,2013-06-25 02:56:00,
2013-06-24 22:11:00,76.5,73.6,29.96,SSE,157,2.7,-999.0,91,-99.99,,,0.05,Acu-Link.com,2013-06-25 03:11:00,
2013-06-24 22:41:00,76.1,73.6,29.97,SSE,157,2.7,-999.0,92,-99.99,,,0.05,Acu-Link.com,2013-06-25 03:41:00,
2013-06-24 22:57:00,75.9,73.4,29.97,SE,135,1.1,-999.0,92,-99.99,,,0.05,Acu-Link.com,2013-06-25 03:57:00,
2013-06-24 23:12:00,75.4,73.5,29.98,ENE,67,0.0,-999.0,94,-99.99,,,0.05,Acu-Link.com,2013-06-25 04:12:00,
2013-06-24 23:27:00,74.7,72.8,29.99,ESE,112,0.0,-999.0,94,-99.99,,,0.05,Acu-Link.com,2013-06-25 04:27:00,
2013-06-24 23:43:00,74.1,72.9,29.99,East,90,0.0,-999.0,96,-99.99,,,0.05,Acu-Link.com,2013-06-25 04:43:00,
2013-06-24 23:58:00,73.8,72.9,29.99,NNE,22,1.1,-999.0,97,-99.99,,,0.05,Acu-Link.com,2013-06-25 04:58:00,